Time;durP1;ratioP1;P1;durP2;ratioP2;P2;SDS_P1;SDS_P2;PMS_P1;PMS_P2;Temp;Humidity;BMP_temperature;BMP_pressure;BME280_temperature;BME280_humidity;BME280_pressure;Samples;Min_cycle;Max_cycle;Signal;HPM_P1;HPM_P2
2022/08/16 00:00:33;;;;;;;;;18.25;18.25;;;;;26.94;52.40;97948.38;6232089;27;96582;-55
2022/08/16 00:03:40;;;;;;;;;23.25;22.50;;;;;26.90;52.48;97947.47;6240510;27;97509;-58
2022/08/16 00:06:44;;;;;;;;;22.00;21.00;;;;;26.85;52.46;97953.22;6261591;27;96914;-57
2022/08/16 00:09:49;;;;;;;;;20.00;19.60;;;;;26.77;52.72;97954.19;6247802;27;96923;-58
2022/08/16 00:12:54;;;;;;;;;19.50;18.00;;;;;26.73;53.29;97937.50;6238438;28;97667;-55
2022/08/16 00:15:58;;;;;;;;;20.80;20.20;;;;;26.68;53.10;97940.50;6228476;28;97212;-54
2022/08/16 00:19:03;;;;;;;;;21.00;21.00;;;;;26.66;53.33;97931.75;6233244;28;97133;-56
2022/08/16 00:22:06;;;;;;;;;22.25;21.00;;;;;26.65;53.45;97925.41;6237439;27;97642;-55
2022/08/16 00:25:21;;;;;;;;;21.20;19.00;;;;;26.63;53.30;97938.75;6232059;28;97104;-57
2022/08/16 00:28:45;;;;;;;;;22.00;19.80;;;;;26.61;53.49;97932.00;6234154;28;97489;-58
2022/08/16 00:31:51;;;;;;;;;23.00;21.00;;;;;26.60;53.27;97930.38;6240236;27;97442;-58
2022/08/16 00:35:09;;;;;;;;;20.20;19.00;;;;;26.56;53.44;97935.81;6258439;27;97560;-55
2022/08/16 00:38:17;;;;;;;;;22.00;21.00;;;;;26.53;53.43;97936.50;6238289;27;96892;-54
2022/08/16 00:41:43;;;;;;;;;21.00;19.75;;;;;26.52;53.27;97939.63;6262021;27;97288;-56
2022/08/16 00:44:55;;;;;;;;;19.60;19.00;;;;;26.49;53.46;97938.34;6228425;27;96618;-59
2022/08/16 00:47:59;;;;;;;;;22.00;20.00;;;;;26.39;53.51;97927.75;6232860;27;96893;-58
2022/08/16 00:51:04;;;;;;;;;21.00;20.00;;;;;26.42;53.54;97942.84;6262670;27;97529;-55
2022/08/16 00:54:10;;;;;;;;;22.20;22.00;;;;;26.37;53.55;97935.63;6245701;27;97497;-57
2022/08/16 00:57:15;;;;;;;;;21.00;19.00;;;;;26.34;53.14;97939.06;6261013;27;97292;-56
2022/08/16 01:00:19;;;;;;;;;21.20;19.40;;;;;26.30;53.47;97936.19;6255841;27;97352;-56
2022/08/16 01:03:28;;;;;;;;;18.00;18.00;;;;;26.28;53.47;97934.94;6259996;27;97648;-55
2022/08/16 01:06:35;;;;;;;;;18.50;18.00;;;;;26.08;53.86;97920.06;6258548;27;96945;-56
2022/08/16 01:09:52;;;;;;;;;19.00;19.00;;;;;26.25;53.37;97939.19;6244678;27;96927;-58
2022/08/16 01:12:58;;;;;;;;;20.50;18.25;;;;;26.24;53.59;97945.06;6259043;27;96827;-58
2022/08/16 01:16:06;;;;;;;;;20.00;20.00;;;;;26.23;53.30;97954.50;6259747;27;97537;-55
2022/08/16 01:19:21;;;;;;;;;22.50;20.50;;;;;26.21;53.16;97959.53;6265981;27;97334;-56
2022/08/16 01:22:31;;;;;;;;;25.80;23.00;;;;;26.17;53.19;97956.66;6255887;27;97594;-56
2022/08/16 01:25:58;;;;;;;;;22.00;19.60;;;;;26.14;53.22;97951.03;6242800;27;97704;-56
2022/08/16 01:29:26;;;;;;;;;23.20;22.00;;;;;26.13;53.29;97957.72;6259577;27;96751;-54
2022/08/16 01:32:51;;;;;;;;;21.00;19.00;;;;;26.15;53.31;97953.44;6253118;27;97240;-53
2022/08/16 01:36:15;;;;;;;;;21.20;20.60;;;;;26.14;53.39;97951.84;6246564;27;97092;-56
2022/08/16 01:39:20;;;;;;;;;20.25;19.00;;;;;26.13;53.38;97941.13;6273295;27;97042;-56
2022/08/16 01:42:26;;;;;;;;;20.60;20.00;;;;;26.11;53.47;97935.94;6251341;27;98356;-56
2022/08/16 01:45:31;;;;;;;;;19.00;19.00;;;;;25.99;53.43;97919.41;6264358;27;97186;-56
2022/08/16 01:48:47;;;;;;;;;22.60;21.80;;;;;26.07;53.38;97940.56;6257192;27;97523;-58
2022/08/16 01:51:55;;;;;;;;;18.00;16.60;;;;;26.05;53.28;97942.03;6272076;27;97148;-58
2022/08/16 01:55:10;;;;;;;;;22.00;21.00;;;;;26.02;53.34;97926.16;6254032;27;97265;-57
2022/08/16 01:58:17;;;;;;;;;23.00;20.00;;;;;26.00;53.45;97934.00;6249291;27;96935;-58
2022/08/16 02:01:23;;;;;;;;;20.00;19.00;;;;;25.89;53.43;97925.38;6271802;27;98380;-55
2022/08/16 02:04:32;;;;;;;;;19.60;17.60;;;;;25.98;53.47;97944.59;6259784;27;97104;-54
2022/08/16 02:07:53;;;;;;;;;18.40;17.20;;;;;25.97;53.34;97938.25;6248122;27;97136;-55
2022/08/16 02:10:57;;;;;;;;;20.75;19.50;;;;;25.96;53.35;97931.13;6260508;27;97435;-58
2022/08/16 02:14:04;;;;;;;;;22.00;20.00;;;;;25.95;53.79;97942.53;6262729;27;97533;-56
2022/08/16 02:17:20;;;;;;;;;19.80;18.00;;;;;25.95;53.56;97945.28;6252158;27;97499;-55
2022/08/16 02:20:26;;;;;;;;;19.00;18.00;;;;;25.95;53.73;97953.56;6245769;27;96836;-55
2022/08/16 02:23:30;;;;;;;;;21.80;19.20;;;;;25.93;53.48;97953.09;6254508;27;98636;-58
2022/08/16 02:26:34;;;;;;;;;22.00;20.00;;;;;25.92;53.72;97952.28;6247554;27;96466;-56
2022/08/16 02:29:39;;;;;;;;;23.20;21.00;;;;;25.90;53.55;97940.00;6252312;27;97682;-56
2022/08/16 02:32:44;;;;;;;;;22.60;20.00;;;;;25.90;53.48;97940.00;6260209;27;97798;-58
2022/08/16 02:36:06;;;;;;;;;23.00;20.60;;;;;25.86;53.49;97937.91;6261328;27;97453;-56
2022/08/16 02:39:18;;;;;;;;;20.60;20.20;;;;;25.84;53.49;97945.75;6241307;27;97445;-55
2022/08/16 02:42:25;;;;;;;;;25.40;24.40;;;;;25.83;53.56;97952.41;6268384;27;96975;-57
2022/08/16 02:45:31;;;;;;;;;19.00;19.00;;;;;25.82;53.51;97942.50;6253451;27;96741;-55
2022/08/16 02:48:37;;;;;;;;;20.75;20.00;;;;;25.78;53.45;97941.59;6229955;28;97523;-55
2022/08/16 02:51:42;;;;;;;;;22.00;22.00;;;;;25.73;53.35;97943.75;6239066;28;98090;-55
2022/08/16 02:54:46;;;;;;;;;20.25;19.00;;;;;25.69;53.20;97942.84;6239495;28;96846;-57
2022/08/16 02:57:58;;;;;;;;;19.00;18.33;;;;;25.64;53.30;97941.13;6240640;27;96363;-55
2022/08/16 03:01:04;;;;;;;;;19.75;18.75;;;;;25.62;53.24;97932.34;6258540;27;97622;-55
2022/08/16 03:04:09;;;;;;;;;21.00;19.40;;;;;25.60;53.34;97944.91;6252551;27;98654;-56
2022/08/16 03:07:32;;;;;;;;;23.40;22.00;;;;;25.58;53.19;97941.66;6235319;27;97390;-55
2022/08/16 03:10:40;;;;;;;;;23.40;22.00;;;;;25.55;53.11;97948.69;6236333;27;96751;-55
2022/08/16 03:13:52;;;;;;;;;24.25;21.25;;;;;25.53;53.46;97950.94;6236201;28;97561;-55
2022/08/16 03:17:00;;;;;;;;;21.00;20.00;;;;;25.51;53.30;97947.72;6226909;28;97007;-55
2022/08/16 03:20:16;;;;;;;;;19.00;17.40;;;;;25.48;53.15;97942.88;6238267;28;97455;-57
2022/08/16 03:23:21;;;;;;;;;27.00;25.75;;;;;25.45;53.14;97932.53;6223638;28;96709;-54
2022/08/16 03:26:25;;;;;;;;;24.00;24.00;;;;;25.46;53.08;97947.97;6237764;27;97318;-56
2022/08/16 03:29:30;;;;;;;;;12.00;12.00;;;;;25.44;53.22;97951.06;6236487;28;97210;-56
2022/08/16 03:32:37;;;;;;;;;23.20;22.20;;;;;25.44;53.28;97950.25;6230215;27;96689;-55
2022/08/16 03:35:43;;;;;;;;;26.60;25.00;;;;;25.43;52.95;97949.44;6252520;27;97610;-56
2022/08/16 03:38:53;;;;;;;;;22.00;21.00;;;;;25.41;53.31;97948.94;6236698;28;96689;-57
2022/08/16 03:41:58;;;;;;;;;22.80;21.80;;;;;25.41;53.06;97956.44;6235323;27;97093;-55
2022/08/16 03:45:06;;;;;;;;;25.25;24.00;;;;;25.42;53.23;97971.84;6250535;27;97244;-55
2022/08/16 03:48:13;;;;;;;;;41.60;36.40;;;;;25.43;53.30;97962.41;6262562;27;97332;-54
2022/08/16 03:51:22;;;;;;;;;42.00;35.60;;;;;25.43;53.48;97963.22;6236077;28;96930;-58
2022/08/16 03:54:34;;;;;;;;;35.60;32.40;;;;;25.46;53.41;97967.28;6234095;27;97286;-57
2022/08/16 03:57:39;;;;;;;;;36.80;33.00;;;;;25.47;53.48;97968.88;6240567;27;96720;-55
2022/08/16 04:00:45;;;;;;;;;32.40;30.00;;;;;25.48;53.32;97972.44;6249448;27;97534;-56
2022/08/16 04:04:02;;;;;;;;;43.00;36.00;;;;;25.48;53.34;97976.00;6256493;27;97677;-56
2022/08/16 04:07:07;;;;;;;;;44.50;37.75;;;;;25.51;53.36;97980.81;6240122;27;97171;-58
2022/08/16 04:10:16;;;;;;;;;36.75;32.75;;;;;25.53;53.24;97975.78;6236979;28;96541;-58
2022/08/16 04:13:39;;;;;;;;;39.50;35.50;;;;;25.56;53.43;97974.34;6247605;27;98102;-56
2022/08/16 04:17:06;;;;;;;;;44.75;38.50;;;;;25.57;53.22;97987.78;6238946;28;96770;-59
2022/08/16 04:20:13;;;;;;;;;35.80;33.00;;;;;25.58;53.24;97978.34;6232296;27;98227;-54
2022/08/16 04:23:38;;;;;;;;;37.75;33.00;;;;;25.62;53.50;97975.72;6227752;28;97163;-57
2022/08/16 04:26:42;;;;;;;;;32.00;30.20;;;;;25.64;53.67;97978.94;6233910;28;96700;-56
2022/08/16 04:29:49;;;;;;;;;31.60;29.40;;;;;25.67;53.52;97989.28;6271402;27;97422;-55
2022/08/16 04:32:55;;;;;;;;;33.00;29.20;;;;;25.67;53.55;97984.59;6240940;27;97436;-56
2022/08/16 04:36:05;;;;;;;;;43.80;37.60;;;;;25.61;53.47;97977.66;6228418;28;97601;-58
2022/08/16 04:39:09;;;;;;;;;45.00;39.00;;;;;25.74;53.50;97984.84;6212542;28;97972;-57
2022/08/16 04:42:18;;;;;;;;;47.00;39.00;;;;;25.78;53.30;97996.81;6220596;28;97366;-56
2022/08/16 04:45:30;;;;;;;;;44.00;37.00;;;;;25.82;53.26;97992.22;6228421;27;97581;-55
2022/08/16 04:48:42;;;;;;;;;35.40;32.00;;;;;25.88;53.23;97992.78;6256877;27;97679;-57
2022/08/16 04:51:50;;;;;;;;;33.80;31.00;;;;;25.81;53.23;97978.72;6241786;27;97452;-56
2022/08/16 04:54:57;;;;;;;;;35.00;32.00;;;;;25.96;53.15;97980.00;6219949;27;97420;-55
2022/08/16 04:58:02;;;;;;;;;36.20;32.20;;;;;25.99;53.04;97980.16;6235508;27;96677;-57
2022/08/16 05:01:26;;;;;;;;;36.20;33.00;;;;;26.04;53.38;97984.66;6228758;28;96742;-59
2022/08/16 05:04:50;;;;;;;;;44.00;38.00;;;;;26.11;52.97;97993.16;6235466;28;96337;-57
2022/08/16 05:07:56;;;;;;;;;36.00;33.00;;;;;26.16;52.83;97995.69;6228686;28;96962;-57
2022/08/16 05:11:08;;;;;;;;;45.00;38.00;;;;;26.21;53.02;98012.88;6228577;28;97181;-56
2022/08/16 05:14:13;;;;;;;;;46.40;39.40;;;;;26.27;52.91;98008.72;6227490;28;98077;-56
2022/08/16 05:17:36;;;;;;;;;47.00;40.00;;;;;26.34;52.64;98007.34;6239638;27;98442;-57
2022/08/16 05:20:44;;;;;;;;;36.60;32.60;;;;;26.39;52.35;98001.59;6231854;27;97178;-58
2022/08/16 05:24:09;;;;;;;;;42.50;36.00;;;;;26.44;51.77;97998.59;6227404;27;97945;-57
2022/08/16 05:27:14;;;;;;;;;39.25;34.00;;;;;26.49;52.07;98001.09;6229276;27;97495;-56
2022/08/16 05:30:18;;;;;;;;;38.00;33.00;;;;;26.51;52.01;97996.84;6252566;27;96926;-59
2022/08/16 05:33:39;;;;;;;;;44.00;37.00;;;;;26.59;51.72;98003.41;6260649;27;97566;-56
2022/08/16 05:36:45;;;;;;;;;33.00;30.00;;;;;26.66;51.68;98006.41;6249207;27;96966;-57
2022/08/16 05:39:54;;;;;;;;;35.00;32.60;;;;;26.69;51.77;98000.97;6235073;28;96640;-60
2022/08/16 05:42:58;;;;;;;;;29.20;26.20;;;;;26.81;51.63;98004.88;6224374;28;98541;-57
2022/08/16 05:46:07;;;;;;;;;16.20;16.20;;;;;26.81;51.38;98002.91;6230890;27;96593;-58
2022/08/16 05:49:49;;;;;;;;;29.00;27.00;;;;;26.99;51.53;98004.25;6231332;28;97137;-58
2022/08/16 05:52:53;;;;;;;;;28.80;28.60;;;;;27.06;50.83;98010.03;6235429;27;97638;-57
2022/08/16 05:55:58;;;;;;;;;24.00;23.00;;;;;27.14;50.57;98022.09;6234802;28;97488;-58
2022/08/16 05:59:01;;;;;;;;;23.20;22.20;;;;;27.25;50.05;98023.22;6222042;28;97506;-59
2022/08/16 06:02:08;;;;;;;;;18.60;18.00;;;;;27.33;49.75;98016.72;6230821;28;96877;-58
2022/08/16 06:05:32;;;;;;;;;12.00;11.00;;;;;27.42;49.04;98017.34;6229641;28;97102;-57
2022/08/16 06:08:43;;;;;;;;;20.25;19.25;;;;;27.51;49.13;98018.03;6271693;27;96753;-57
2022/08/16 06:11:52;;;;;;;;;18.80;18.00;;;;;27.61;48.80;98024.25;6239163;28;96830;-60
2022/08/16 06:14:58;;;;;;;;;24.00;23.80;;;;;27.69;48.68;98024.06;6238977;28;97421;-59
2022/08/16 06:18:03;;;;;;;;;22.00;21.00;;;;;27.83;48.61;98026.41;6238337;27;97362;-56
2022/08/16 06:21:07;;;;;;;;;23.80;22.20;;;;;27.87;48.49;98019.00;6255549;27;96650;-60
2022/08/16 06:24:13;;;;;;;;;22.00;20.00;;;;;28.09;48.79;98025.91;6238021;28;97519;-56
2022/08/16 06:27:38;;;;;;;;;22.00;21.75;;;;;28.23;48.40;98026.28;6272609;27;96407;-59
2022/08/16 06:30:43;;;;;;;;;21.40;21.00;;;;;28.37;48.01;98038.53;6272447;27;97156;-55
2022/08/16 06:33:50;;;;;;;;;26.60;26.60;;;;;28.55;47.02;98036.16;6236596;28;96707;-57
2022/08/16 06:36:55;;;;;;;;;24.00;23.00;;;;;28.56;46.36;98012.81;6236878;28;97506;-59
2022/08/16 06:40:03;;;;;;;;;14.00;13.00;;;;;28.88;45.22;98041.34;6242499;27;97262;-59
2022/08/16 06:43:22;;;;;;;;;22.60;21.00;;;;;29.00;45.09;98030.09;6232402;28;97624;-60
2022/08/16 06:46:38;;;;;;;;;20.00;18.00;;;;;29.14;45.49;98027.63;6236929;28;96634;-53
2022/08/16 06:49:50;;;;;;;;;16.60;16.20;;;;;29.46;44.59;98053.31;6237383;28;97475;-54
2022/08/16 06:53:01;;;;;;;;;20.00;19.00;;;;;29.64;44.56;98050.88;6233000;27;96768;-56
2022/08/16 06:56:47;;;;;;;;;20.20;20.00;;;;;29.84;43.66;98055.25;6232240;27;96727;-57
2022/08/16 06:59:58;;;;;;;;;18.60;17.60;;;;;29.56;43.37;97991.63;6212350;28;96992;-55
2022/08/16 07:03:14;;;;;;;;;16.40;16.00;;;;;30.13;43.78;98051.03;6212772;28;97302;-57
2022/08/16 07:06:30;;;;;;;;;21.00;20.00;;;;;30.25;41.65;98056.38;6218569;28;97504;-61
2022/08/16 07:09:39;;;;;;;;;16.33;16.33;;;;;30.35;41.29;98061.34;6234185;27;96858;-53
2022/08/16 07:12:43;;;;;;;;;19.80;18.20;;;;;30.49;42.07;98075.53;6217387;28;97819;-56
2022/08/16 07:16:13;;;;;;;;;20.60;19.00;;;;;30.61;40.76;98080.06;6228429;28;98029;-55
2022/08/16 07:19:20;;;;;;;;;18.25;17.75;;;;;30.71;40.27;98086.97;6235700;28;97197;-57
2022/08/16 07:22:23;;;;;;;;;13.80;13.20;;;;;30.77;40.09;98083.50;6235357;28;96659;-58
2022/08/16 07:25:49;;;;;;;;;18.00;16.40;;;;;30.81;40.18;98083.56;6234516;28;97871;-58
2022/08/16 07:28:55;;;;;;;;;20.00;18.00;;;;;30.84;40.35;98083.59;6230861;28;97163;-59
2022/08/16 07:32:00;;;;;;;;;17.00;17.00;;;;;30.90;40.03;98089.66;6231693;28;97146;-58
2022/08/16 07:35:06;;;;;;;;;15.25;14.75;;;;;30.96;40.32;98082.59;6233512;28;98099;-59
2022/08/16 07:38:10;;;;;;;;;19.00;19.00;;;;;31.01;40.12;98078.69;6207792;28;96958;-61
2022/08/16 07:41:21;;;;;;;;;17.00;16.40;;;;;31.02;40.31;98085.91;6247393;27;97237;-56
2022/08/16 07:44:32;;;;;;;;;19.40;18.00;;;;;31.06;40.56;98079.19;6229978;28;97717;-59
2022/08/16 07:47:54;;;;;;;;;20.00;20.00;;;;;31.11;40.74;98081.66;6225350;28;98358;-56
2022/08/16 07:50:58;;;;;;;;;17.50;17.00;;;;;31.17;40.59;98069.03;6235293;28;97304;-58
2022/08/16 07:54:10;;;;;;;;;19.80;19.80;;;;;31.29;39.68;98081.88;6235396;27;97422;-56
2022/08/16 07:57:26;;;;;;;;;20.00;20.00;;;;;31.49;39.66;98082.53;6225826;28;97486;-59
2022/08/16 08:00:30;;;;;;;;;19.60;18.60;;;;;31.67;40.06;98084.38;6236866;27;97000;-52
2022/08/16 08:03:35;;;;;;;;;19.00;18.40;;;;;31.82;39.44;98088.94;6235634;28;97827;-58
2022/08/16 08:06:46;;;;;;;;;17.00;16.00;;;;;31.93;38.87;98091.06;6232005;28;97114;-59
2022/08/16 08:09:54;;;;;;;;;17.00;16.00;;;;;32.09;38.86;98078.50;6236063;28;97361;-55
2022/08/16 08:12:58;;;;;;;;;16.00;14.60;;;;;32.31;38.71;98087.09;6230870;27;97403;-57
2022/08/16 08:16:03;;;;;;;;;16.00;15.60;;;;;32.54;38.25;98080.16;6229651;28;96824;-57
2022/08/16 08:19:11;;;;;;;;;19.75;18.00;;;;;32.77;38.21;98087.50;6222435;28;97497;-54
2022/08/16 08:22:17;;;;;;;;;18.00;18.00;;;;;32.95;37.81;98091.22;6233810;28;97139;-54
2022/08/16 08:25:30;;;;;;;;;17.00;16.00;;;;;33.05;37.08;98091.28;6234341;28;97058;-58
2022/08/16 08:28:54;;;;;;;;;16.00;16.00;;;;;33.15;37.52;98080.56;6229974;27;97586;-55
2022/08/16 08:32:05;;;;;;;;;20.60;19.00;;;;;33.32;37.37;98080.72;6228892;27;97104;-54
2022/08/16 08:35:31;;;;;;;;;20.00;19.00;;;;;33.17;37.75;98020.38;6230890;28;96985;-53
2022/08/16 08:38:36;;;;;;;;;21.00;20.20;;;;;33.75;36.55;98083.72;6236442;28;96666;-56
2022/08/16 08:41:51;;;;;;;;;17.20;16.80;;;;;33.99;37.37;98079.38;6235316;28;97662;-56
2022/08/16 08:44:56;;;;;;;;;17.25;16.25;;;;;33.87;36.52;98027.41;6223644;28;96937;-55
2022/08/16 08:47:59;;;;;;;;;19.00;17.80;;;;;34.43;37.32;98079.88;6232506;28;97461;-63
2022/08/16 08:51:09;;;;;;;;;14.75;14.75;;;;;34.62;35.58;98093.47;6232372;28;96910;-60
2022/08/16 08:54:26;;;;;;;;;16.00;15.25;;;;;34.77;36.62;98095.09;6232535;27;96805;-55
2022/08/16 08:57:31;;;;;;;;;17.00;16.60;;;;;34.82;35.07;98068.69;6236076;28;97400;-54
2022/08/16 09:00:53;;;;;;;;;17.60;17.00;;;;;35.10;34.37;98095.84;6220088;28;97672;-55
2022/08/16 09:04:04;;;;;;;;;17.75;16.75;;;;;35.28;34.33;98093.06;6227218;28;97424;-60
2022/08/16 09:07:11;;;;;;;;;19.25;18.25;;;;;35.48;34.53;98100.56;6211545;28;97493;-57
2022/08/16 09:10:15;;;;;;;;;14.00;13.00;;;;;35.78;34.90;98096.47;6234970;28;97074;-54
2022/08/16 09:13:24;;;;;;;;;19.00;18.00;;;;;36.10;34.17;98108.34;6221165;28;97038;-53
2022/08/16 09:16:27;;;;;;;;;15.20;14.20;;;;;36.44;33.94;98105.75;6234995;28;96886;-55
2022/08/16 09:19:54;;;;;;;;;16.00;16.00;;;;;36.76;33.18;98103.50;6236341;28;96694;-54
2022/08/16 09:23:02;;;;;;;;;14.60;14.60;;;;;37.04;33.40;98098.84;6263549;27;97361;-56
2022/08/16 09:26:16;;;;;;;;;13.00;12.80;;;;;37.34;32.34;98098.91;6226847;28;97231;-56
2022/08/16 09:29:40;;;;;;;;;11.20;11.00;;;;;37.60;31.40;98098.25;6238419;27;98753;-55
2022/08/16 09:32:53;;;;;;;;;15.00;13.50;;;;;37.76;31.06;98108.91;6237660;27;97816;-56
2022/08/16 09:35:56;;;;;;;;;14.00;14.00;;;;;37.71;30.24;98104.56;6239174;27;96581;-62
2022/08/16 09:39:03;;;;;;;;;14.00;14.00;;;;;37.70;30.80;98105.75;6240758;28;97358;-54
2022/08/16 09:42:06;;;;;;;;;17.00;16.00;;;;;37.75;30.37;98101.69;6240211;27;97064;-57
2022/08/16 09:45:12;;;;;;;;;14.00;14.00;;;;;37.87;31.47;98105.97;6238881;27;96398;-56
2022/08/16 09:48:20;;;;;;;;;14.50;13.00;;;;;38.02;30.66;98093.31;6219385;27;97407;-61
2022/08/16 09:51:44;;;;;;;;;16.25;14.25;;;;;38.13;30.09;98088.31;6215713;28;97578;-57
2022/08/16 09:54:48;;;;;;;;;13.40;12.80;;;;;38.32;29.70;98093.25;6236965;28;97221;-59
2022/08/16 09:57:52;;;;;;;;;15.80;14.80;;;;;38.41;28.95;98087.13;6234092;28;96891;-56
2022/08/16 10:00:56;;;;;;;;;14.00;13.00;;;;;38.62;30.12;98095.22;6237482;27;97578;-57
2022/08/16 10:04:03;;;;;;;;;15.80;15.40;;;;;38.71;29.49;98089.84;6238466;27;96685;-54
2022/08/16 10:07:29;;;;;;;;;14.00;13.00;;;;;38.79;28.98;98094.16;6229553;28;97381;-57
2022/08/16 10:14:15;;;;;;;;;14.80;14.60;;;;;38.67;28.83;98094.75;6235455;28;96608;-61
2022/08/16 10:17:23;;;;;;;;;17.00;15.40;;;;;38.54;29.60;98097.38;6239696;27;97541;-63
2022/08/16 10:20:27;;;;;;;;;15.00;14.00;;;;;38.36;29.67;98085.56;6234397;28;96471;-61
2022/08/16 10:23:31;;;;;;;;;14.00;13.00;;;;;38.28;29.76;98103.78;6235138;28;98113;-60
2022/08/16 10:26:37;;;;;;;;;17.00;15.00;;;;;38.18;29.83;98104.72;6235546;28;97439;-59
2022/08/16 10:30:00;;;;;;;;;17.00;15.40;;;;;38.02;29.88;98082.06;6263196;27;97004;-61
2022/08/16 10:33:25;;;;;;;;;15.60;15.00;;;;;38.28;29.16;98115.03;6218113;28;98637;-59
2022/08/16 10:36:32;;;;;;;;;15.00;14.00;;;;;38.35;29.62;98112.13;6232704;28;96993;-61
2022/08/16 10:39:41;;;;;;;;;16.75;16.00;;;;;38.34;29.12;98106.91;6233183;28;96921;-59
2022/08/16 10:42:48;;;;;;;;;14.80;14.00;;;;;38.31;29.54;98100.13;6234481;28;97224;-61
2022/08/16 10:45:52;;;;;;;;;15.00;14.00;;;;;38.22;29.99;98091.41;6237520;28;97935;-58
2022/08/16 10:49:03;;;;;;;;;15.00;13.40;;;;;38.07;30.21;98090.81;6232012;28;96958;-60
2022/08/16 10:52:08;;;;;;;;;19.00;19.00;;;;;37.95;30.20;98085.75;6236937;27;97453;-57
2022/08/16 10:55:22;;;;;;;;;19.00;16.00;;;;;37.76;31.64;98069.53;6235914;28;97095;-58
2022/08/16 10:58:47;;;;;;;;;15.80;15.60;;;;;37.85;31.05;98080.25;6236102;27;96834;-56
2022/08/16 11:01:51;;;;;;;;;16.00;15.00;;;;;37.84;30.20;98084.28;6226455;28;96437;-59
2022/08/16 11:05:16;;;;;;;;;17.00;17.00;;;;;37.79;28.55;98077.09;6214558;28;97563;-59
2022/08/16 11:08:20;;;;;;;;;14.60;14.00;;;;;37.78;29.12;98083.19;6214057;28;96578;-57
2022/08/16 11:11:38;;;;;;;;;17.40;15.00;;;;;37.82;29.16;98072.66;6236076;28;97497;-56
2022/08/16 11:15:03;;;;;;;;;17.00;16.60;;;;;37.92;28.80;98060.47;6221533;28;97467;-57
2022/08/16 11:18:19;;;;;;;;;15.80;15.20;;;;;38.08;29.56;98057.84;6238302;27;96907;-54
2022/08/16 11:21:44;;;;;;;;;17.00;16.00;;;;;38.25;29.09;98055.97;6224847;27;96830;-55
2022/08/16 11:25:08;;;;;;;;;18.00;16.20;;;;;38.33;28.74;98054.63;6213588;28;96570;-54
2022/08/16 11:28:32;;;;;;;;;19.60;19.00;;;;;38.37;29.44;98056.19;6213632;28;97004;-56
2022/08/16 11:31:58;;;;;;;;;17.20;16.20;;;;;38.47;29.94;98060.06;6233195;28;97263;-57
2022/08/16 11:35:05;;;;;;;;;17.00;16.00;;;;;38.56;29.82;98063.94;6238249;27;97198;-55
2022/08/16 11:38:20;;;;;;;;;18.00;18.00;;;;;38.68;29.33;98071.00;6234751;27;97624;-56
2022/08/16 11:41:45;;;;;;;;;16.00;15.00;;;;;38.80;28.45;98066.78;6223569;28;97434;-55
2022/08/16 11:44:53;;;;;;;;;16.00;16.00;;;;;38.94;29.33;98064.53;6232694;28;97500;-56
2022/08/16 11:48:00;;;;;;;;;17.50;16.75;;;;;39.10;28.85;98066.63;6256631;27;96596;-59
2022/08/16 11:51:05;;;;;;;;;16.00;15.40;;;;;39.25;28.58;98058.69;6235627;27;98540;-55
2022/08/16 11:54:08;;;;;;;;;18.00;16.40;;;;;39.37;28.13;98056.06;6234996;27;96693;-55
2022/08/16 11:57:23;;;;;;;;;17.20;17.00;;;;;39.48;27.91;98052.22;6233810;28;98122;-56
2022/08/16 12:00:30;;;;;;;;;16.00;16.00;;;;;39.48;27.20;98040.94;6234795;27;97225;-54
2022/08/16 12:03:55;;;;;;;;;15.40;14.40;;;;;39.44;27.78;98037.41;6234686;27;98616;-54
2022/08/16 12:06:59;;;;;;;;;18.40;17.40;;;;;39.45;27.68;98034.13;6243610;27;97512;-56
2022/08/16 12:10:05;;;;;;;;;17.00;15.20;;;;;39.46;27.12;98018.00;6235525;27;98696;-56
2022/08/16 12:13:10;;;;;;;;;18.00;17.00;;;;;39.49;28.07;98017.16;6240544;27;97493;-55
2022/08/16 12:16:14;;;;;;;;;18.00;16.80;;;;;39.54;27.83;98014.59;6235808;27;97030;-56
2022/08/16 12:19:25;;;;;;;;;15.00;14.20;;;;;39.64;28.21;98002.28;6231144;27;97333;-56
2022/08/16 12:22:38;;;;;;;;;17.80;16.80;;;;;39.67;27.76;98001.44;6233494;28;98577;-55
2022/08/16 12:25:44;;;;;;;;;16.60;15.60;;;;;39.68;27.72;98010.69;6236316;28;97040;-54
2022/08/16 12:28:49;;;;;;;;;18.40;17.40;;;;;39.63;28.33;98016.84;6234793;27;96586;-55
2022/08/16 12:32:01;;;;;;;;;15.60;15.00;;;;;39.56;28.55;98014.97;6235143;28;97896;-54
2022/08/16 12:35:26;;;;;;;;;17.00;16.00;;;;;39.44;28.26;98029.72;6236397;28;98121;-56
2022/08/16 12:38:31;;;;;;;;;18.75;17.00;;;;;39.24;28.11;98040.19;6235320;28;97411;-56
2022/08/16 12:41:51;;;;;;;;;15.60;14.00;;;;;38.78;28.11;98041.03;6233308;28;98454;-60
2022/08/16 12:44:55;;;;;;;;;19.00;17.60;;;;;38.41;28.81;98044.88;6223366;28;97635;-56
2022/08/16 12:51:41;;;;;;;;;14.20;12.80;;;;;37.50;29.43;98042.91;6246257;27;98277;-59
2022/08/16 12:55:02;;;;;;;;;14.50;13.75;;;;;37.10;29.86;98046.59;6236751;27;97885;-58
2022/08/16 12:58:05;;;;;;;;;15.40;14.00;;;;;36.77;29.94;98053.72;6233990;27;97309;-58
2022/08/16 13:01:32;;;;;;;;;14.40;14.20;;;;;35.95;30.42;97994.59;6233628;28;96942;-61
2022/08/16 13:04:36;;;;;;;;;15.60;15.00;;;;;35.95;31.03;98040.28;6232613;27;97751;-57
2022/08/16 13:07:42;;;;;;;;;15.00;14.00;;;;;35.62;31.65;98032.44;6235820;27;96656;-59
2022/08/16 13:10:54;;;;;;;;;18.00;15.60;;;;;35.41;32.50;98022.13;6237972;28;97628;-57
2022/08/16 13:13:58;;;;;;;;;15.40;14.40;;;;;35.18;33.09;98022.63;6239634;27;97427;-57
2022/08/16 13:17:03;;;;;;;;;15.00;14.00;;;;;34.94;33.84;98029.06;6241081;27;97404;-60
2022/08/16 13:20:11;;;;;;;;;18.60;18.00;;;;;34.75;34.32;98033.09;6239845;27;96744;-59
2022/08/16 13:23:17;;;;;;;;;18.40;17.00;;;;;34.57;34.84;98042.69;6239979;27;98061;-56
2022/08/16 13:26:21;;;;;;;;;20.00;19.00;;;;;34.41;35.21;98043.09;6236985;28;96444;-56
2022/08/16 13:29:25;;;;;;;;;18.00;17.50;;;;;34.24;35.64;98049.50;6237712;27;96690;-58
2022/08/16 13:32:42;;;;;;;;;17.80;17.00;;;;;33.89;36.01;98016.63;6237770;27;98040;-54
2022/08/16 13:35:51;;;;;;;;;17.60;17.00;;;;;33.99;35.92;98054.22;6242570;27;97467;-56
2022/08/16 13:39:05;;;;;;;;;18.60;17.00;;;;;33.85;36.09;98064.19;6236831;27;98248;-64
2022/08/16 13:42:10;;;;;;;;;16.25;16.25;;;;;33.75;35.91;98059.34;6240313;28;97456;-59
2022/08/16 13:45:16;;;;;;;;;17.25;17.00;;;;;33.66;35.58;98055.31;6238236;27;97180;-55
2022/08/16 13:48:22;;;;;;;;;20.40;19.40;;;;;33.58;35.41;98054.47;6238976;27;97113;-56
2022/08/16 13:51:28;;;;;;;;;17.00;16.00;;;;;33.37;35.51;98024.47;6236436;28;97520;-56
2022/08/16 13:54:34;;;;;;;;;16.50;15.50;;;;;33.36;36.04;98019.25;6238942;27;96756;-55
2022/08/16 13:57:38;;;;;;;;;18.60;17.60;;;;;33.44;35.81;98037.63;6238230;28;97024;-55
2022/08/16 14:01:02;;;;;;;;;19.60;19.40;;;;;33.40;35.77;98042.41;6235582;28;97366;-57
2022/08/16 14:04:05;;;;;;;;;17.00;16.00;;;;;33.36;36.04;98045.22;6239579;27;96837;-55
2022/08/16 14:07:12;;;;;;;;;17.60;17.60;;;;;33.33;36.12;98040.38;6238045;27;97365;-60
2022/08/16 14:10:23;;;;;;;;;18.80;16.80;;;;;33.33;36.11;98025.66;6233866;28;96701;-56
2022/08/16 14:13:26;;;;;;;;;19.00;17.00;;;;;33.33;36.60;98022.84;6236739;27;96705;-60
2022/08/16 14:16:31;;;;;;;;;16.00;15.00;;;;;33.32;36.42;98022.03;6239274;27;97075;-57
2022/08/16 14:19:36;;;;;;;;;17.25;15.75;;;;;33.33;36.45;98025.66;6234553;27;96977;-54
2022/08/16 14:22:48;;;;;;;;;17.00;16.60;;;;;33.35;36.98;98031.63;6237658;27;97106;-54
2022/08/16 14:25:58;;;;;;;;;21.00;20.50;;;;;33.34;37.30;98035.59;6239001;27;96531;-53
2022/08/16 14:29:01;;;;;;;;;19.00;17.40;;;;;33.37;37.16;98040.44;6235056;27;97580;-55
2022/08/16 14:32:07;;;;;;;;;16.75;15.75;;;;;33.38;36.60;98039.25;6232847;28;97587;-56
2022/08/16 14:35:19;;;;;;;;;17.40;16.80;;;;;33.39;36.90;98038.03;6242143;27;97961;-57
2022/08/16 14:38:23;;;;;;;;;19.00;17.00;;;;;33.39;37.22;98044.41;6241152;27;97524;-54
2022/08/16 14:41:33;;;;;;;;;17.40;16.40;;;;;33.42;37.32;98042.84;6237885;27;97292;-56